sensor_id;sensor_type;location;lat;lon;timestamp;P1;durP1;ratioP1;P2;durP2;ratioP2
56670;SDS011;42545;50.054;8.306;2023-03-31T00:01:29;0.30;;;0.30;;
56670;SDS011;42545;50.054;8.306;2023-03-31T00:03:58;0.30;;;0.30;;
56670;SDS011;42545;50.054;8.306;2023-03-31T00:06:29;0.40;;;0.38;;
56670;SDS011;42545;50.054;8.306;2023-03-31T00:09:02;0.82;;;0.60;;
56670;SDS011;42545;50.054;8.306;2023-03-31T00:11:29;5.60;;;1.40;;
56670;SDS011;42545;50.054;8.306;2023-03-31T00:13:55;3.55;;;1.00;;
56670;SDS011;42545;50.054;8.306;2023-03-31T00:16:22;2.65;;;1.10;;
56670;SDS011;42545;50.054;8.306;2023-03-31T00:18:50;1.77;;;0.80;;
56670;SDS011;42545;50.054;8.306;2023-03-31T00:21:18;1.27;;;0.80;;
56670;SDS011;42545;50.054;8.306;2023-03-31T00:23:54;1.95;;;0.80;;
56670;SDS011;42545;50.054;8.306;2023-03-31T00:26:23;1.67;;;0.80;;
56670;SDS011;42545;50.054;8.306;2023-03-31T00:28:52;3.15;;;1.05;;
56670;SDS011;42545;50.054;8.306;2023-03-31T00:31:20;1.00;;;0.70;;
56670;SDS011;42545;50.054;8.306;2023-03-31T00:33:48;2.50;;;0.80;;
56670;SDS011;42545;50.054;8.306;2023-03-31T00:36:17;0.65;;;0.60;;
56670;SDS011;42545;50.054;8.306;2023-03-31T00:38:51;0.90;;;0.70;;
56670;SDS011;42545;50.054;8.306;2023-03-31T00:41:19;0.93;;;0.80;;
56670;SDS011;42545;50.054;8.306;2023-03-31T00:44:07;1.23;;;0.70;;
56670;SDS011;42545;50.054;8.306;2023-03-31T00:46:37;0.90;;;0.60;;
56670;SDS011;42545;50.054;8.306;2023-03-31T00:49:11;0.50;;;0.50;;
56670;SDS011;42545;50.054;8.306;2023-03-31T00:51:44;0.85;;;0.60;;
56670;SDS011;42545;50.054;8.306;2023-03-31T00:56:44;0.82;;;0.60;;
56670;SDS011;42545;50.054;8.306;2023-03-31T00:59:13;0.85;;;0.60;;
56670;SDS011;42545;50.054;8.306;2023-03-31T01:01:42;0.82;;;0.68;;
56670;SDS011;42545;50.054;8.306;2023-03-31T01:04:16;0.50;;;0.50;;
56670;SDS011;42545;50.054;8.306;2023-03-31T01:06:54;0.63;;;0.50;;
56670;SDS011;42545;50.054;8.306;2023-03-31T01:09:24;0.40;;;0.40;;
56670;SDS011;42545;50.054;8.306;2023-03-31T01:11:54;1.20;;;0.73;;
56670;SDS011;42545;50.054;8.306;2023-03-31T01:14:22;0.90;;;0.55;;
56670;SDS011;42545;50.054;8.306;2023-03-31T01:16:49;1.25;;;1.00;;
56670;SDS011;42545;50.054;8.306;2023-03-31T01:19:21;0.60;;;0.60;;
56670;SDS011;42545;50.054;8.306;2023-03-31T01:22:13;0.70;;;0.60;;
56670;SDS011;42545;50.054;8.306;2023-03-31T01:25:09;0.85;;;0.50;;
56670;SDS011;42545;50.054;8.306;2023-03-31T01:28:06;1.17;;;0.60;;
56670;SDS011;42545;50.054;8.306;2023-03-31T01:30:51;0.80;;;0.50;;
56670;SDS011;42545;50.054;8.306;2023-03-31T01:33:56;0.90;;;0.50;;
56670;SDS011;42545;50.054;8.306;2023-03-31T01:36:58;0.43;;;0.40;;
56670;SDS011;42545;50.054;8.306;2023-03-31T01:40:00;0.75;;;0.50;;
56670;SDS011;42545;50.054;8.306;2023-03-31T01:42:35;0.50;;;0.50;;
56670;SDS011;42545;50.054;8.306;2023-03-31T01:45:08;0.50;;;0.50;;
56670;SDS011;42545;50.054;8.306;2023-03-31T01:47:48;0.50;;;0.50;;
56670;SDS011;42545;50.054;8.306;2023-03-31T01:50:22;0.40;;;0.40;;
56670;SDS011;42545;50.054;8.306;2023-03-31T01:52:57;0.50;;;0.50;;
56670;SDS011;42545;50.054;8.306;2023-03-31T01:55:30;0.40;;;0.40;;
56670;SDS011;42545;50.054;8.306;2023-03-31T01:58:02;0.50;;;0.50;;
56670;SDS011;42545;50.054;8.306;2023-03-31T02:00:35;0.40;;;0.40;;
56670;SDS011;42545;50.054;8.306;2023-03-31T02:03:08;0.45;;;0.40;;
56670;SDS011;42545;50.054;8.306;2023-03-31T02:05:41;0.80;;;0.70;;
56670;SDS011;42545;50.054;8.306;2023-03-31T02:08:12;0.50;;;0.50;;
56670;SDS011;42545;50.054;8.306;2023-03-31T02:10:43;1.35;;;0.90;;
56670;SDS011;42545;50.054;8.306;2023-03-31T02:13:13;0.80;;;0.70;;
56670;SDS011;42545;50.054;8.306;2023-03-31T02:15:43;0.70;;;0.65;;
56670;SDS011;42545;50.054;8.306;2023-03-31T02:18:18;0.80;;;0.80;;
56670;SDS011;42545;50.054;8.306;2023-03-31T02:20:50;1.00;;;0.80;;
56670;SDS011;42545;50.054;8.306;2023-03-31T02:23:23;0.57;;;0.57;;
56670;SDS011;42545;50.054;8.306;2023-03-31T02:25:56;0.40;;;0.40;;
56670;SDS011;42545;50.054;8.306;2023-03-31T02:28:28;0.55;;;0.50;;
56670;SDS011;42545;50.054;8.306;2023-03-31T02:31:01;1.00;;;0.55;;
56670;SDS011;42545;50.054;8.306;2023-03-31T02:33:34;0.73;;;0.55;;
56670;SDS011;42545;50.054;8.306;2023-03-31T02:36:00;0.60;;;0.60;;
56670;SDS011;42545;50.054;8.306;2023-03-31T02:38:29;0.95;;;0.77;;
56670;SDS011;42545;50.054;8.306;2023-03-31T02:41:01;0.60;;;0.60;;
56670;SDS011;42545;50.054;8.306;2023-03-31T02:43:28;0.80;;;0.73;;
56670;SDS011;42545;50.054;8.306;2023-03-31T02:45:55;0.90;;;0.52;;
56670;SDS011;42545;50.054;8.306;2023-03-31T02:48:23;0.47;;;0.47;;
56670;SDS011;42545;50.054;8.306;2023-03-31T02:51:03;0.85;;;0.85;;
56670;SDS011;42545;50.054;8.306;2023-03-31T02:53:47;1.23;;;0.75;;
56670;SDS011;42545;50.054;8.306;2023-03-31T02:56:38;0.73;;;0.68;;
56670;SDS011;42545;50.054;8.306;2023-03-31T02:59:23;0.75;;;0.70;;
56670;SDS011;42545;50.054;8.306;2023-03-31T03:02:07;0.90;;;0.77;;
56670;SDS011;42545;50.054;8.306;2023-03-31T03:04:55;0.98;;;0.75;;
56670;SDS011;42545;50.054;8.306;2023-03-31T03:07:37;1.00;;;0.82;;
56670;SDS011;42545;50.054;8.306;2023-03-31T03:10:13;2.63;;;1.20;;
56670;SDS011;42545;50.054;8.306;2023-03-31T03:12:51;4.28;;;1.80;;
56670;SDS011;42545;50.054;8.306;2023-03-31T03:15:24;2.85;;;1.42;;
56670;SDS011;42545;50.054;8.306;2023-03-31T03:17:54;1.98;;;1.42;;
56670;SDS011;42545;50.054;8.306;2023-03-31T03:20:21;1.75;;;1.30;;
56670;SDS011;42545;50.054;8.306;2023-03-31T03:22:48;2.28;;;1.20;;
56670;SDS011;42545;50.054;8.306;2023-03-31T03:25:16;1.25;;;1.13;;
56670;SDS011;42545;50.054;8.306;2023-03-31T03:27:44;1.58;;;1.00;;
56670;SDS011;42545;50.054;8.306;2023-03-31T03:30:15;2.00;;;1.10;;
56670;SDS011;42545;50.054;8.306;2023-03-31T03:32:43;2.13;;;0.98;;
56670;SDS011;42545;50.054;8.306;2023-03-31T03:35:10;1.92;;;1.38;;
56670;SDS011;42545;50.054;8.306;2023-03-31T03:37:37;2.20;;;1.05;;
56670;SDS011;42545;50.054;8.306;2023-03-31T03:40:04;1.77;;;0.90;;
56670;SDS011;42545;50.054;8.306;2023-03-31T03:42:32;1.58;;;0.98;;
56670;SDS011;42545;50.054;8.306;2023-03-31T03:44:59;1.42;;;1.00;;
56670;SDS011;42545;50.054;8.306;2023-03-31T03:47:28;0.93;;;0.80;;
56670;SDS011;42545;50.054;8.306;2023-03-31T03:49:56;1.10;;;1.00;;
56670;SDS011;42545;50.054;8.306;2023-03-31T03:52:24;0.95;;;0.77;;
56670;SDS011;42545;50.054;8.306;2023-03-31T03:54:51;0.80;;;0.77;;
56670;SDS011;42545;50.054;8.306;2023-03-31T03:57:18;0.77;;;0.70;;
56670;SDS011;42545;50.054;8.306;2023-03-31T03:59:45;0.90;;;0.77;;
56670;SDS011;42545;50.054;8.306;2023-03-31T04:02:12;0.75;;;0.75;;
56670;SDS011;42545;50.054;8.306;2023-03-31T04:04:40;1.33;;;0.73;;
56670;SDS011;42545;50.054;8.306;2023-03-31T04:07:09;0.77;;;0.70;;
56670;SDS011;42545;50.054;8.306;2023-03-31T04:09:36;0.70;;;0.70;;
56670;SDS011;42545;50.054;8.306;2023-03-31T04:12:03;0.50;;;0.50;;
56670;SDS011;42545;50.054;8.306;2023-03-31T04:14:30;1.00;;;0.70;;
56670;SDS011;42545;50.054;8.306;2023-03-31T04:16:57;0.50;;;0.50;;
56670;SDS011;42545;50.054;8.306;2023-03-31T04:19:24;0.52;;;0.50;;
56670;SDS011;42545;50.054;8.306;2023-03-31T04:21:53;0.40;;;0.40;;
56670;SDS011;42545;50.054;8.306;2023-03-31T04:24:26;0.50;;;0.50;;
56670;SDS011;42545;50.054;8.306;2023-03-31T04:26:57;0.50;;;0.50;;
56670;SDS011;42545;50.054;8.306;2023-03-31T04:29:24;0.50;;;0.50;;
56670;SDS011;42545;50.054;8.306;2023-03-31T04:31:52;1.00;;;0.70;;
56670;SDS011;42545;50.054;8.306;2023-03-31T04:34:22;0.93;;;0.70;;
56670;SDS011;42545;50.054;8.306;2023-03-31T04:36:51;1.63;;;0.70;;
56670;SDS011;42545;50.054;8.306;2023-03-31T04:39:20;0.50;;;0.50;;
56670;SDS011;42545;50.054;8.306;2023-03-31T04:41:55;0.85;;;0.70;;
56670;SDS011;42545;50.054;8.306;2023-03-31T04:44:22;0.40;;;0.40;;
56670;SDS011;42545;50.054;8.306;2023-03-31T04:46:49;0.40;;;0.40;;
56670;SDS011;42545;50.054;8.306;2023-03-31T04:49:16;0.50;;;0.50;;
56670;SDS011;42545;50.054;8.306;2023-03-31T04:51:43;0.80;;;0.60;;
56670;SDS011;42545;50.054;8.306;2023-03-31T04:54:12;0.63;;;0.60;;
56670;SDS011;42545;50.054;8.306;2023-03-31T04:56:39;0.75;;;0.70;;
56670;SDS011;42545;50.054;8.306;2023-03-31T04:59:05;0.50;;;0.50;;
56670;SDS011;42545;50.054;8.306;2023-03-31T05:01:32;0.82;;;0.80;;
56670;SDS011;42545;50.054;8.306;2023-03-31T05:04:00;1.48;;;0.68;;
56670;SDS011;42545;50.054;8.306;2023-03-31T05:06:27;0.85;;;0.77;;
56670;SDS011;42545;50.054;8.306;2023-03-31T05:08:54;3.60;;;1.00;;
56670;SDS011;42545;50.054;8.306;2023-03-31T05:11:23;2.47;;;1.25;;
56670;SDS011;42545;50.054;8.306;2023-03-31T05:13:50;3.63;;;1.75;;
56670;SDS011;42545;50.054;8.306;2023-03-31T05:16:17;2.90;;;1.40;;
56670;SDS011;42545;50.054;8.306;2023-03-31T05:18:43;3.83;;;1.40;;
56670;SDS011;42545;50.054;8.306;2023-03-31T05:21:11;4.75;;;1.55;;
56670;SDS011;42545;50.054;8.306;2023-03-31T05:23:38;9.23;;;2.15;;
56670;SDS011;42545;50.054;8.306;2023-03-31T05:26:05;6.53;;;1.75;;
56670;SDS011;42545;50.054;8.306;2023-03-31T05:28:35;3.97;;;1.50;;
56670;SDS011;42545;50.054;8.306;2023-03-31T05:31:02;3.17;;;1.35;;
56670;SDS011;42545;50.054;8.306;2023-03-31T05:33:31;2.85;;;1.27;;
56670;SDS011;42545;50.054;8.306;2023-03-31T05:35:58;2.97;;;1.40;;
56670;SDS011;42545;50.054;8.306;2023-03-31T05:38:25;2.40;;;1.20;;
56670;SDS011;42545;50.054;8.306;2023-03-31T05:40:55;2.00;;;1.20;;
56670;SDS011;42545;50.054;8.306;2023-03-31T05:43:22;1.48;;;0.98;;
56670;SDS011;42545;50.054;8.306;2023-03-31T05:45:50;1.33;;;0.90;;
56670;SDS011;42545;50.054;8.306;2023-03-31T05:48:17;1.67;;;1.05;;
56670;SDS011;42545;50.054;8.306;2023-03-31T05:50:45;2.28;;;1.10;;
56670;SDS011;42545;50.054;8.306;2023-03-31T05:53:12;1.60;;;0.93;;
56670;SDS011;42545;50.054;8.306;2023-03-31T05:55:39;1.35;;;0.75;;
56670;SDS011;42545;50.054;8.306;2023-03-31T05:58:06;1.00;;;0.90;;
56670;SDS011;42545;50.054;8.306;2023-03-31T06:00:33;1.58;;;0.93;;
56670;SDS011;42545;50.054;8.306;2023-03-31T06:03:03;1.17;;;0.70;;
56670;SDS011;42545;50.054;8.306;2023-03-31T06:05:33;1.95;;;1.00;;
56670;SDS011;42545;50.054;8.306;2023-03-31T06:08:00;3.13;;;0.80;;
56670;SDS011;42545;50.054;8.306;2023-03-31T06:10:27;4.28;;;1.13;;
56670;SDS011;42545;50.054;8.306;2023-03-31T06:12:54;1.95;;;0.95;;
56670;SDS011;42545;50.054;8.306;2023-03-31T06:15:21;1.85;;;0.90;;
56670;SDS011;42545;50.054;8.306;2023-03-31T06:17:48;2.15;;;0.95;;
56670;SDS011;42545;50.054;8.306;2023-03-31T06:20:17;3.08;;;1.10;;
56670;SDS011;42545;50.054;8.306;2023-03-31T06:22:44;2.75;;;1.27;;
56670;SDS011;42545;50.054;8.306;2023-03-31T06:25:10;2.47;;;1.23;;
56670;SDS011;42545;50.054;8.306;2023-03-31T06:27:37;1.80;;;1.02;;
56670;SDS011;42545;50.054;8.306;2023-03-31T06:30:05;1.60;;;1.20;;
56670;SDS011;42545;50.054;8.306;2023-03-31T06:32:33;1.88;;;1.10;;
56670;SDS011;42545;50.054;8.306;2023-03-31T06:34:59;9.52;;;2.03;;
56670;SDS011;42545;50.054;8.306;2023-03-31T06:37:27;2.50;;;1.42;;
56670;SDS011;42545;50.054;8.306;2023-03-31T06:39:54;3.72;;;1.50;;
56670;SDS011;42545;50.054;8.306;2023-03-31T06:42:21;3.45;;;1.80;;
56670;SDS011;42545;50.054;8.306;2023-03-31T06:44:48;2.60;;;1.30;;
56670;SDS011;42545;50.054;8.306;2023-03-31T06:47:14;3.00;;;1.55;;
56670;SDS011;42545;50.054;8.306;2023-03-31T06:49:41;5.50;;;1.98;;
56670;SDS011;42545;50.054;8.306;2023-03-31T06:52:08;7.80;;;2.20;;
56670;SDS011;42545;50.054;8.306;2023-03-31T06:54:36;5.55;;;2.22;;
56670;SDS011;42545;50.054;8.306;2023-03-31T06:57:02;6.28;;;2.65;;
56670;SDS011;42545;50.054;8.306;2023-03-31T06:59:29;7.57;;;2.20;;
56670;SDS011;42545;50.054;8.306;2023-03-31T07:01:56;3.72;;;2.13;;
56670;SDS011;42545;50.054;8.306;2023-03-31T07:04:23;6.82;;;2.38;;
56670;SDS011;42545;50.054;8.306;2023-03-31T07:06:50;3.60;;;1.70;;
56670;SDS011;42545;50.054;8.306;2023-03-31T07:09:16;6.50;;;2.30;;
56670;SDS011;42545;50.054;8.306;2023-03-31T07:11:47;5.15;;;2.45;;
56670;SDS011;42545;50.054;8.306;2023-03-31T07:14:14;5.28;;;2.10;;
56670;SDS011;42545;50.054;8.306;2023-03-31T07:16:40;10.48;;;3.45;;
56670;SDS011;42545;50.054;8.306;2023-03-31T07:19:07;8.60;;;3.70;;
56670;SDS011;42545;50.054;8.306;2023-03-31T07:21:37;11.88;;;4.30;;
56670;SDS011;42545;50.054;8.306;2023-03-31T07:24:04;8.63;;;3.80;;
56670;SDS011;42545;50.054;8.306;2023-03-31T07:26:31;10.93;;;4.57;;
56670;SDS011;42545;50.054;8.306;2023-03-31T07:29:02;7.45;;;3.67;;
56670;SDS011;42545;50.054;8.306;2023-03-31T07:31:28;4.93;;;3.40;;
56670;SDS011;42545;50.054;8.306;2023-03-31T07:33:55;4.72;;;2.75;;
56670;SDS011;42545;50.054;8.306;2023-03-31T07:36:22;6.20;;;3.45;;
56670;SDS011;42545;50.054;8.306;2023-03-31T07:38:50;4.65;;;2.85;;
56670;SDS011;42545;50.054;8.306;2023-03-31T07:41:17;4.63;;;2.78;;
56670;SDS011;42545;50.054;8.306;2023-03-31T07:43:45;3.63;;;2.33;;
56670;SDS011;42545;50.054;8.306;2023-03-31T07:46:15;4.68;;;2.90;;
56670;SDS011;42545;50.054;8.306;2023-03-31T07:48:43;7.13;;;3.10;;
56670;SDS011;42545;50.054;8.306;2023-03-31T07:51:10;4.28;;;2.38;;
56670;SDS011;42545;50.054;8.306;2023-03-31T07:53:37;3.50;;;2.85;;
56670;SDS011;42545;50.054;8.306;2023-03-31T07:56:03;5.15;;;2.42;;
56670;SDS011;42545;50.054;8.306;2023-03-31T07:58:31;3.67;;;2.33;;
56670;SDS011;42545;50.054;8.306;2023-03-31T08:00:58;2.95;;;1.98;;
56670;SDS011;42545;50.054;8.306;2023-03-31T08:03:26;3.20;;;2.00;;
56670;SDS011;42545;50.054;8.306;2023-03-31T08:05:53;4.90;;;2.30;;
56670;SDS011;42545;50.054;8.306;2023-03-31T08:08:20;4.40;;;2.10;;
56670;SDS011;42545;50.054;8.306;2023-03-31T08:10:47;4.88;;;2.33;;
56670;SDS011;42545;50.054;8.306;2023-03-31T08:13:13;3.10;;;2.00;;
56670;SDS011;42545;50.054;8.306;2023-03-31T08:15:40;3.83;;;2.47;;
56670;SDS011;42545;50.054;8.306;2023-03-31T08:18:07;4.88;;;2.42;;
56670;SDS011;42545;50.054;8.306;2023-03-31T08:20:35;3.97;;;2.28;;
56670;SDS011;42545;50.054;8.306;2023-03-31T08:23:03;3.70;;;2.25;;
56670;SDS011;42545;50.054;8.306;2023-03-31T08:25:33;2.75;;;1.60;;
56670;SDS011;42545;50.054;8.306;2023-03-31T08:27:59;3.78;;;2.28;;
56670;SDS011;42545;50.054;8.306;2023-03-31T08:30:26;5.15;;;2.00;;
56670;SDS011;42545;50.054;8.306;2023-03-31T08:32:52;3.83;;;1.98;;
56670;SDS011;42545;50.054;8.306;2023-03-31T08:35:19;2.97;;;1.50;;
56670;SDS011;42545;50.054;8.306;2023-03-31T08:37:47;1.88;;;1.30;;
56670;SDS011;42545;50.054;8.306;2023-03-31T08:40:15;2.58;;;1.50;;
56670;SDS011;42545;50.054;8.306;2023-03-31T08:42:48;2.72;;;1.20;;
56670;SDS011;42545;50.054;8.306;2023-03-31T08:45:19;1.75;;;1.25;;
56670;SDS011;42545;50.054;8.306;2023-03-31T08:47:47;1.98;;;1.23;;
56670;SDS011;42545;50.054;8.306;2023-03-31T08:50:22;2.92;;;1.55;;
56670;SDS011;42545;50.054;8.306;2023-03-31T08:52:54;1.38;;;1.15;;
56670;SDS011;42545;50.054;8.306;2023-03-31T08:55:28;2.47;;;1.67;;
56670;SDS011;42545;50.054;8.306;2023-03-31T08:58:00;1.83;;;1.50;;
56670;SDS011;42545;50.054;8.306;2023-03-31T09:00:35;2.72;;;1.52;;
56670;SDS011;42545;50.054;8.306;2023-03-31T09:03:09;3.17;;;1.75;;
56670;SDS011;42545;50.054;8.306;2023-03-31T09:05:45;7.30;;;2.83;;
56670;SDS011;42545;50.054;8.306;2023-03-31T09:08:22;3.75;;;1.88;;
56670;SDS011;42545;50.054;8.306;2023-03-31T09:11:00;2.95;;;1.73;;
56670;SDS011;42545;50.054;8.306;2023-03-31T09:13:44;2.78;;;2.03;;
56670;SDS011;42545;50.054;8.306;2023-03-31T09:16:21;2.97;;;1.83;;
56670;SDS011;42545;50.054;8.306;2023-03-31T09:18:51;2.83;;;1.80;;
56670;SDS011;42545;50.054;8.306;2023-03-31T09:21:21;4.82;;;2.58;;
56670;SDS011;42545;50.054;8.306;2023-03-31T09:23:56;2.05;;;1.80;;
56670;SDS011;42545;50.054;8.306;2023-03-31T09:26:31;2.65;;;1.83;;
56670;SDS011;42545;50.054;8.306;2023-03-31T09:29:03;2.92;;;1.90;;
56670;SDS011;42545;50.054;8.306;2023-03-31T09:31:36;7.45;;;2.72;;
56670;SDS011;42545;50.054;8.306;2023-03-31T09:34:09;3.35;;;2.42;;
56670;SDS011;42545;50.054;8.306;2023-03-31T09:36:39;4.60;;;2.25;;
56670;SDS011;42545;50.054;8.306;2023-03-31T09:39:12;7.05;;;2.60;;
56670;SDS011;42545;50.054;8.306;2023-03-31T09:41:41;5.70;;;2.15;;
56670;SDS011;42545;50.054;8.306;2023-03-31T09:44:14;4.32;;;2.30;;
56670;SDS011;42545;50.054;8.306;2023-03-31T09:46:50;3.28;;;1.80;;
56670;SDS011;42545;50.054;8.306;2023-03-31T09:49:19;6.90;;;1.90;;
56670;SDS011;42545;50.054;8.306;2023-03-31T09:51:48;4.60;;;2.33;;
56670;SDS011;42545;50.054;8.306;2023-03-31T09:54:30;8.40;;;2.78;;
56670;SDS011;42545;50.054;8.306;2023-03-31T09:57:02;4.63;;;2.00;;
56670;SDS011;42545;50.054;8.306;2023-03-31T09:59:38;9.07;;;2.00;;
56670;SDS011;42545;50.054;8.306;2023-03-31T10:02:16;8.10;;;1.90;;
56670;SDS011;42545;50.054;8.306;2023-03-31T10:04:53;6.28;;;1.77;;
56670;SDS011;42545;50.054;8.306;2023-03-31T10:07:22;8.23;;;2.78;;
56670;SDS011;42545;50.054;8.306;2023-03-31T10:09:51;8.23;;;2.08;;
56670;SDS011;42545;50.054;8.306;2023-03-31T10:12:21;10.55;;;2.08;;
56670;SDS011;42545;50.054;8.306;2023-03-31T10:17:22;8.95;;;1.85;;
56670;SDS011;42545;50.054;8.306;2023-03-31T10:19:50;5.95;;;2.03;;
56670;SDS011;42545;50.054;8.306;2023-03-31T10:22:26;6.95;;;1.45;;
56670;SDS011;42545;50.054;8.306;2023-03-31T10:25:03;6.22;;;1.80;;
56670;SDS011;42545;50.054;8.306;2023-03-31T10:27:37;5.63;;;1.35;;
56670;SDS011;42545;50.054;8.306;2023-03-31T10:30:07;4.60;;;1.23;;
56670;SDS011;42545;50.054;8.306;2023-03-31T10:32:37;6.35;;;1.40;;
56670;SDS011;42545;50.054;8.306;2023-03-31T10:35:07;3.63;;;1.20;;
56670;SDS011;42545;50.054;8.306;2023-03-31T10:37:45;5.95;;;1.40;;
56670;SDS011;42545;50.054;8.306;2023-03-31T10:40:17;4.40;;;1.20;;
56670;SDS011;42545;50.054;8.306;2023-03-31T10:43:00;3.10;;;1.10;;
56670;SDS011;42545;50.054;8.306;2023-03-31T10:45:35;3.40;;;1.50;;
56670;SDS011;42545;50.054;8.306;2023-03-31T10:48:08;7.07;;;1.40;;
56670;SDS011;42545;50.054;8.306;2023-03-31T10:50:43;3.58;;;1.25;;
56670;SDS011;42545;50.054;8.306;2023-03-31T10:53:11;4.15;;;1.60;;
56670;SDS011;42545;50.054;8.306;2023-03-31T10:55:41;3.17;;;1.20;;
56670;SDS011;42545;50.054;8.306;2023-03-31T10:58:22;1.75;;;1.00;;
56670;SDS011;42545;50.054;8.306;2023-03-31T11:01:02;2.33;;;0.90;;
56670;SDS011;42545;50.054;8.306;2023-03-31T11:03:40;2.40;;;1.20;;
56670;SDS011;42545;50.054;8.306;2023-03-31T11:06:21;5.78;;;1.73;;
56670;SDS011;42545;50.054;8.306;2023-03-31T11:08:55;7.20;;;1.50;;
56670;SDS011;42545;50.054;8.306;2023-03-31T11:11:45;3.28;;;1.63;;
56670;SDS011;42545;50.054;8.306;2023-03-31T11:14:21;3.92;;;1.38;;
56670;SDS011;42545;50.054;8.306;2023-03-31T11:16:57;3.28;;;1.10;;
56670;SDS011;42545;50.054;8.306;2023-03-31T11:19:35;6.03;;;1.63;;
56670;SDS011;42545;50.054;8.306;2023-03-31T11:22:08;4.07;;;1.42;;
56670;SDS011;42545;50.054;8.306;2023-03-31T11:24:46;3.75;;;1.55;;
56670;SDS011;42545;50.054;8.306;2023-03-31T11:27:33;3.58;;;1.60;;
56670;SDS011;42545;50.054;8.306;2023-03-31T11:30:14;2.92;;;1.30;;
56670;SDS011;42545;50.054;8.306;2023-03-31T11:32:52;2.78;;;1.20;;
56670;SDS011;42545;50.054;8.306;2023-03-31T11:35:34;6.25;;;2.10;;
56670;SDS011;42545;50.054;8.306;2023-03-31T11:38:19;3.15;;;1.60;;
56670;SDS011;42545;50.054;8.306;2023-03-31T11:40:58;4.65;;;1.52;;
56670;SDS011;42545;50.054;8.306;2023-03-31T11:43:30;4.47;;;1.70;;
56670;SDS011;42545;50.054;8.306;2023-03-31T11:46:00;4.60;;;1.73;;
56670;SDS011;42545;50.054;8.306;2023-03-31T11:48:36;6.80;;;2.65;;
56670;SDS011;42545;50.054;8.306;2023-03-31T11:51:08;6.03;;;3.08;;
56670;SDS011;42545;50.054;8.306;2023-03-31T11:53:40;7.78;;;2.67;;
56670;SDS011;42545;50.054;8.306;2023-03-31T11:56:08;7.22;;;3.00;;
56670;SDS011;42545;50.054;8.306;2023-03-31T11:58:40;7.28;;;2.40;;
56670;SDS011;42545;50.054;8.306;2023-03-31T12:01:13;4.93;;;2.00;;
56670;SDS011;42545;50.054;8.306;2023-03-31T12:03:47;4.13;;;1.80;;
56670;SDS011;42545;50.054;8.306;2023-03-31T12:06:21;5.60;;;2.25;;
56670;SDS011;42545;50.054;8.306;2023-03-31T12:08:57;12.45;;;3.22;;
56670;SDS011;42545;50.054;8.306;2023-03-31T12:11:32;11.50;;;2.42;;
56670;SDS011;42545;50.054;8.306;2023-03-31T12:14:07;5.28;;;1.70;;
56670;SDS011;42545;50.054;8.306;2023-03-31T12:16:44;6.63;;;1.50;;
56670;SDS011;42545;50.054;8.306;2023-03-31T12:19:14;9.75;;;1.80;;
56670;SDS011;42545;50.054;8.306;2023-03-31T12:21:47;5.32;;;1.40;;
56670;SDS011;42545;50.054;8.306;2023-03-31T12:24:16;5.03;;;1.50;;
56670;SDS011;42545;50.054;8.306;2023-03-31T12:26:46;3.47;;;1.13;;
56670;SDS011;42545;50.054;8.306;2023-03-31T12:29:26;7.15;;;1.50;;
56670;SDS011;42545;50.054;8.306;2023-03-31T12:31:57;7.00;;;1.45;;
56670;SDS011;42545;50.054;8.306;2023-03-31T12:34:27;5.53;;;1.40;;
56670;SDS011;42545;50.054;8.306;2023-03-31T12:36:59;2.97;;;1.20;;
56670;SDS011;42545;50.054;8.306;2023-03-31T12:39:37;3.20;;;1.20;;
56670;SDS011;42545;50.054;8.306;2023-03-31T12:42:18;4.57;;;1.30;;
56670;SDS011;42545;50.054;8.306;2023-03-31T12:45:09;4.28;;;1.33;;
56670;SDS011;42545;50.054;8.306;2023-03-31T12:47:50;3.90;;;1.30;;
56670;SDS011;42545;50.054;8.306;2023-03-31T12:50:40;6.95;;;1.50;;
56670;SDS011;42545;50.054;8.306;2023-03-31T12:53:20;7.97;;;1.90;;
56670;SDS011;42545;50.054;8.306;2023-03-31T12:55:54;9.70;;;2.20;;
56670;SDS011;42545;50.054;8.306;2023-03-31T12:58:39;8.50;;;1.95;;
56670;SDS011;42545;50.054;8.306;2023-03-31T13:01:11;8.98;;;1.83;;
56670;SDS011;42545;50.054;8.306;2023-03-31T13:03:45;11.10;;;1.70;;
56670;SDS011;42545;50.054;8.306;2023-03-31T13:09:37;6.80;;;1.67;;
56670;SDS011;42545;50.054;8.306;2023-03-31T13:12:06;5.35;;;1.48;;
56670;SDS011;42545;50.054;8.306;2023-03-31T13:14:35;6.60;;;1.42;;
56670;SDS011;42545;50.054;8.306;2023-03-31T13:17:12;5.05;;;1.33;;
56670;SDS011;42545;50.054;8.306;2023-03-31T13:19:47;6.78;;;1.73;;
56670;SDS011;42545;50.054;8.306;2023-03-31T13:22:28;8.30;;;1.73;;
56670;SDS011;42545;50.054;8.306;2023-03-31T13:28:03;3.13;;;1.10;;
56670;SDS011;42545;50.054;8.306;2023-03-31T13:30:45;1.95;;;0.70;;
56670;SDS011;42545;50.054;8.306;2023-03-31T13:33:20;2.65;;;0.77;;
56670;SDS011;42545;50.054;8.306;2023-03-31T13:35:52;5.85;;;1.55;;
56670;SDS011;42545;50.054;8.306;2023-03-31T13:38:34;1.92;;;0.77;;
56670;SDS011;42545;50.054;8.306;2023-03-31T13:41:16;3.17;;;0.95;;
56670;SDS011;42545;50.054;8.306;2023-03-31T13:43:57;1.98;;;0.65;;
56670;SDS011;42545;50.054;8.306;2023-03-31T13:46:59;1.45;;;0.73;;
56670;SDS011;42545;50.054;8.306;2023-03-31T13:49:51;1.13;;;0.70;;
56670;SDS011;42545;50.054;8.306;2023-03-31T13:52:30;2.10;;;0.57;;
56670;SDS011;42545;50.054;8.306;2023-03-31T13:55:22;1.55;;;0.68;;
56670;SDS011;42545;50.054;8.306;2023-03-31T13:58:22;4.35;;;1.05;;
56670;SDS011;42545;50.054;8.306;2023-03-31T14:01:08;3.50;;;0.80;;
56670;SDS011;42545;50.054;8.306;2023-03-31T14:04:00;4.55;;;1.02;;
56670;SDS011;42545;50.054;8.306;2023-03-31T14:06:55;6.47;;;1.10;;
56670;SDS011;42545;50.054;8.306;2023-03-31T14:09:27;3.03;;;0.80;;
56670;SDS011;42545;50.054;8.306;2023-03-31T14:11:57;4.03;;;1.10;;
56670;SDS011;42545;50.054;8.306;2023-03-31T14:14:25;2.00;;;0.70;;
56670;SDS011;42545;50.054;8.306;2023-03-31T14:16:54;4.93;;;1.02;;
56670;SDS011;42545;50.054;8.306;2023-03-31T14:19:36;3.92;;;1.00;;
56670;SDS011;42545;50.054;8.306;2023-03-31T14:22:17;4.00;;;1.30;;
56670;SDS011;42545;50.054;8.306;2023-03-31T14:24:49;4.63;;;1.00;;
56670;SDS011;42545;50.054;8.306;2023-03-31T14:27:28;3.35;;;1.17;;
56670;SDS011;42545;50.054;8.306;2023-03-31T14:30:10;3.95;;;1.23;;
56670;SDS011;42545;50.054;8.306;2023-03-31T14:32:46;5.95;;;1.33;;
56670;SDS011;42545;50.054;8.306;2023-03-31T14:35:27;4.40;;;1.08;;
56670;SDS011;42545;50.054;8.306;2023-03-31T14:38:04;7.35;;;1.13;;
56670;SDS011;42545;50.054;8.306;2023-03-31T14:40:36;3.58;;;1.20;;
56670;SDS011;42545;50.054;8.306;2023-03-31T14:43:16;4.78;;;1.20;;
56670;SDS011;42545;50.054;8.306;2023-03-31T14:45:46;4.78;;;1.20;;
56670;SDS011;42545;50.054;8.306;2023-03-31T14:48:13;5.03;;;1.17;;
56670;SDS011;42545;50.054;8.306;2023-03-31T14:50:41;5.55;;;1.30;;
56670;SDS011;42545;50.054;8.306;2023-03-31T14:53:15;6.13;;;1.55;;
56670;SDS011;42545;50.054;8.306;2023-03-31T14:55:43;5.82;;;1.52;;
56670;SDS011;42545;50.054;8.306;2023-03-31T14:58:13;5.80;;;1.65;;
56670;SDS011;42545;50.054;8.306;2023-03-31T15:00:49;3.53;;;1.08;;
56670;SDS011;42545;50.054;8.306;2023-03-31T15:03:19;4.43;;;0.90;;
56670;SDS011;42545;50.054;8.306;2023-03-31T15:05:46;5.43;;;1.10;;
56670;SDS011;42545;50.054;8.306;2023-03-31T15:08:15;4.13;;;1.08;;
56670;SDS011;42545;50.054;8.306;2023-03-31T15:10:46;3.50;;;1.42;;
56670;SDS011;42545;50.054;8.306;2023-03-31T15:13:17;7.55;;;1.15;;
56670;SDS011;42545;50.054;8.306;2023-03-31T15:15:49;2.40;;;1.38;;
56670;SDS011;42545;50.054;8.306;2023-03-31T15:18:16;2.78;;;1.02;;
56670;SDS011;42545;50.054;8.306;2023-03-31T15:20:44;2.58;;;0.90;;
56670;SDS011;42545;50.054;8.306;2023-03-31T15:23:20;3.25;;;1.00;;
56670;SDS011;42545;50.054;8.306;2023-03-31T15:25:50;2.58;;;0.77;;
56670;SDS011;42545;50.054;8.306;2023-03-31T15:28:22;3.88;;;1.00;;
56670;SDS011;42545;50.054;8.306;2023-03-31T15:30:52;2.90;;;1.20;;